Metar Cercanos

 

LEPA - Palma De Mallorc, Spain
Distance from station: ONO 38km
Actualización: 27/04/2018 10:30
Despejado
Despejado
 Viento del SO
Viento: SO 9 km/h
Temperatura: 20°C
Rocío: 9°C
Humedad: 49%
Barómetro: 1013 hPa
Resumen: Despejado
Visibility: greater than 10 km
2018/04/27 08:30 LEPA 270830Z 23005KT 190V280 CAVOK 20/09 Q1013 NOSIG
LEMH - Mahon/Menorca Is, Spain
Distance from station: ENE 105km
Actualización: 27/04/2018 10:30
Despejado
Despejado
 Viento del NNO
Viento: NNO 9 km/h
Temperatura: 20°C
Rocío: 11°C
Humedad: 56%
Barómetro: 1012 hPa
Resumen: Despejado
Visibility: greater than 10 km
2018/04/27 08:30 LEMH 270830Z 34005KT 310V020 CAVOK 20/11 Q1012
 
LEIB - Ibiza/Es Codola, Spain
Distance from station: OSO 165km
Actualización: 27/04/2018 10:30
Despejado
Despejado
 Viento del SSO
Viento: SSO 20 km/h
Temperatura: 18°C
Rocío: 13°C
Humedad: 73%
Barómetro: 1014 hPa
Resumen: Despejado
Visibility: greater than 10 km
2018/04/27 08:30 LEIB 270830Z 21011KT 180V240 CAVOK 18/13 Q1014 NOSIG
LEBL - Barcelona Airpor, Spain
Distance from station: NNO 225km
Actualización: 27/04/2018 10:30
Despejado
Despejado
 Viento del SO
Viento: SO 22 km/h
Temperatura: 20°C
Rocío: 14°C
Humedad: 69%
Barómetro: 1012 hPa
Resumen: Despejado
Visibility: greater than 10 km
2018/04/27 08:30 LEBL 270830Z 23012KT CAVOK 20/14 Q1012 NOSIG
 
LEVC - Valencia (civ/Mi, Spain
Distance from station: NO 188km
Actualización: 27/04/2018 10:30
Despejado
Despejado
 Viento del E
Viento: E 7 km/h
Temperatura: 20°C
Rocío: 14°C
Humedad: 69%
Barómetro: 1012 hPa
Resumen: Despejado
Visibility: greater than 10 km
2018/04/27 08:30 LEVC 270830Z 08004KT 020V150 CAVOK 20/14 Q1012 NOSIG
LEGE - Gerona/Costa Bra, Spain
Distance from station: N 276km
Actualización: 27/04/2018 10:30
Despejado
Despejado
 Viento del ENE
Viento: ENE 7 km/h
Temperatura: 18°C
Rocío: 12°C
Humedad: 68%
Barómetro: 1012 hPa
Resumen: Despejado
Visibility: greater than 10 km
2018/04/27 08:30 LEGE 270830Z 06004KT 010V100 CAVOK 18/12 Q1012
 
LEAL - Alicante/El Alte, Spain
Distance from station: OSO 344km
Actualización: 27/04/2018 10:30
Despejado
Despejado
 Viento del SO
Viento: SO 11 km/h
Temperatura: 19°C
Rocío: 15°C
Humedad: 78%
Barómetro: 1013 hPa
Resumen: Despejado
Visibility: greater than 10 km
2018/04/27 08:30 LEAL 270830Z 22006KT 170V270 CAVOK 19/15 Q1013 NOSIG
LEAM - Almeria Airport, Spain
Distance from station: SSO 56km
Actualización: 27/04/2018 10:30
Few Clouds
Few Clouds
 Viento del SSO
Viento: SSO 15 km/h
Temperatura: 18°C
Rocío: 15°C
Humedad: 83%
Barómetro: 1014 hPa
Clouds: Few Clouds
Visibility: 10 km
Cloud details: Few Clouds 366 m
2018/04/27 08:30 LEAM 270830Z 21008KT 9999 FEW012 18/15 Q1014
 
LEZG - Zaragoza (mil/Ci, Spain
Distance from station: NO 431km
Actualización: 27/04/2018 10:30
Despejado
Despejado
 Viento del NO
Viento: NO 7 km/h
Temperatura: 16°C
Rocío: 11°C
Humedad: 72%
Barómetro: 1013 hPa
Resumen: Despejado
Visibility: greater than 10 km
2018/04/27 08:30 LEZG 270830Z 31004KT 260V360 CAVOK 16/11 Q1013
LEMD - Madrid/Barajas, Spain
Distance from station: ONO 234km
Actualización: 27/04/2018 10:30
Despejado
Despejado
 Viento del SO
Viento: SO 9 km/h, Racha: 28 km/h
Temperatura: 19°C
Rocío: 12°C
Humedad: 64%
Barómetro: 1013 hPa
Resumen: Despejado
Visibility: greater than 10 km
2018/04/27 08:30 LEMD 270830Z 22005G15KT 120V290 CAVOK 19/12 Q1013 NOSIG
 
LEGR - Granada Airport, Spain
Distance from station: OSO 62km
Actualización: 27/04/2018 10:30
Few Clouds
Few Clouds
 Viento del varies
Viento: varies 2 km/h
Temperatura: 18°C
Rocío: 14°C
Humedad: 78%
Barómetro: 1017 hPa
Clouds: Few Clouds
Visibility: 10 km
Cloud details: Few Clouds 732 m
2018/04/27 08:30 LEGR 270830Z VRB01KT 9999 FEW024 18/14 Q1017
LEMG - Malaga (civ/Mil), Spain
Distance from station: OSO 227km
Actualización: 27/04/2018 10:30
Few Clouds
Few Clouds
 Viento del OSO
Viento: OSO 17 km/h
Temperatura: 21°C
Rocío: 15°C
Humedad: 69%
Barómetro: 1015 hPa
Clouds: Few Clouds
Visibility: 10 km
Cloud details: Few Clouds 762 m
2018/04/27 08:30 LEMG 270830Z 25009KT 210V290 9999 FEW025 21/15 Q1015 NOSIG
 
LEZL - Sevilla (civ/Mil, Spain
Distance from station: S 318km
Actualización: 27/04/2018 10:30
Muy nuboso
Muy nuboso
 Viento del S
Viento: S 9 km/h
Temperatura: 18°C
Rocío: 15°C
Humedad: 83%
Barómetro: 1016 hPa
Clouds: Muy nuboso
Visibility: 8 km
Cloud details: Few Clouds 549 m
Muy nuboso 1158 m
2018/04/27 08:30 LEZL 270830Z 18005KT 140V210 8000 FEW018 BKN038 18/15 Q1016 NOSIG
LEVT - Vitoria, Spain
Distance from station: NO 226km
Actualización: 27/04/2018 10:30
Parcialmente nuboso
Parcialmente nuboso
 Viento del NNE
Viento: NNE 7 km/h
Temperatura: 13°C
Rocío: 8°C
Humedad: 72%
Barómetro: 1015 hPa
Clouds: Parcialmente nuboso
Visibility: 10 km
Cloud details: Parcialmente nuboso 1372 m
2018/04/27 08:30 LEVT 270830Z 03004KT 330V080 9999 SCT045 13/08 Q1015
 
LEBB - Bilbao/Sondica, Spain
Distance from station: NNO 235km
Actualización: 27/04/2018 10:30
Parcialmente nuboso
Parcialmente nuboso
 Viento del NO
Viento: NO 20 km/h
Temperatura: 16°C
Rocío: 10°C
Humedad: 68%
Barómetro: 1015 hPa
Clouds: Parcialmente nuboso
Visibility: 10 km
Cloud details: Parcialmente nuboso 1097 m
2018/04/27 08:30 LEBB 270830Z 32011KT 280V350 9999 SCT036 16/10 Q1015 NOSIG
LESO - San Sebastian/Fu, Spain
Distance from station: N 231km
Actualización: 27/04/2018 10:30
Parcialmente nuboso
Parcialmente nuboso
 Viento del O
Viento: O 13 km/h
Temperatura: 16°C
Rocío: 10°C
Humedad: 68%
Barómetro: 1015 hPa
Clouds: Parcialmente nuboso
Visibility: 10 km
Cloud details: Parcialmente nuboso 1067 m
2018/04/27 08:30 LESO 270830Z 27007KT 220V310 9999 SCT035 16/10 Q1015
 
LEVD - Valladolid(Mil/C, Spain
Distance from station: ONO 239km
Actualización: 27/04/2018 10:30
Despejado
Despejado
 Viento del OSO
Viento: OSO 13 km/h
Temperatura: 11°C
Rocío: 7°C
Humedad: 77%
Barómetro: 1015 hPa
Resumen: Despejado
Visibility: greater than 10 km
2018/04/27 08:30 LEVD 270830Z 25007KT 220V280 CAVOK 11/07 Q1015
LESA - Salamanca (civ/M, Spain
Distance from station: ONO 349km
Actualización: 27/04/2018 10:30
Few Clouds
Few Clouds
 Viento del ONO
Viento: ONO 17 km/h
Temperatura: 12°C
Rocío: 5°C
Humedad: 63%
Barómetro: 1016 hPa
Clouds: Few Clouds
Visibility: 10 km
Cloud details: Few Clouds 914 m
2018/04/27 08:30 LESA 270830Z 29009KT 260V320 9999 FEW030 12/05 Q1016
 
LEXJ - Santander/Paraya, Spain
Distance from station: NNO 247km
Actualización: 27/04/2018 10:30
Muy nuboso
Muy nuboso
 Viento del O
Viento: O 20 km/h
Temperatura: 14°C
Rocío: 10°C
Humedad: 77%
Barómetro: 1015 hPa
Clouds: Muy nuboso
Visibility: 10 km
Cloud details: Parcialmente nuboso 701 m
Muy nuboso 914 m
2018/04/27 08:30 LEXJ 270830Z 27011KT 9999 SCT023 BKN030 14/10 Q1015
LEAS - Asturias/Aviles, Spain
Distance from station: NO 214km
Actualización: 27/04/2018 10:30
Muy nuboso
Muy nuboso
 Viento del ONO
Viento: ONO 26 km/h
Temperatura: 12°C
Rocío: 8°C
Humedad: 77%
Barómetro: 1016 hPa
Clouds: Muy nuboso
Visibility: 10 km
Cloud details: Few Clouds 610 m
Muy nuboso 1463 m
2018/04/27 08:30 LEAS 270830Z 29014KT 260V320 9999 FEW020 BKN048 12/08 Q1016 NOSIG
 
LECO - La Coruna/Alvedr, Spain
Distance from station: ONO 222km
Actualización: 27/04/2018 10:30
Parcialmente nuboso
Parcialmente nuboso
 Viento del NO
Viento: NO 19 km/h
Temperatura: 12°C
Rocío: 5°C
Humedad: 63%
Barómetro: 1017 hPa
Clouds: Parcialmente nuboso
Visibility: 10 km
Cloud details: Few Clouds 1036 m
Parcialmente nuboso 1219 m
2018/04/27 08:30 LECO 270830Z 31010KT 240V010 9999 FEW034 SCT040 12/05 Q1017 NOSIG
LEVX - Vigo/Peinador, Spain
Distance from station: O 214km
Actualización: 27/04/2018 10:30
Muy nuboso
Muy nuboso
 Viento del N
Viento: N 9 km/h
Temperatura: 11°C
Rocío: 8°C
Humedad: 82%
Barómetro: 1018 hPa
Clouds: Muy nuboso
Visibility: 10 km
Cloud details: Few Clouds 457 m
Muy nuboso 1067 m
2018/04/27 08:30 LEVX 270830Z 36005KT 320V070 9999 FEW015 BKN035 11/08 Q1018 NOSIG